Terminal Aerodrome Forecast
Issued by NWS

Home | Current Version | Previous Version | Text Only | Print | Product List | Glossary On
Versions: 1 2 3 4 5 6 7 8 9 10 11 12 13 14 15 16 17 18
240
FTUS43 KEAX 261126 AAA
TAFSTJ
TAF AMD
KSTJ 261126Z 2611/2706 16006KT P6SM BKN150
     FM261400 20006KT P6SM VCTS SCT080CB BKN120
      TEMPO 2616/2619 4SM TSRA OVC040CB
     FM262000 29006KT P6SM BKN080
     FM270100 01004KT P6SM BKN150=

USA.gov is the U.S. government's official web portal to all federal, state and local government web resources and services.